^^
Saratoga-Weather Station Historical Data
Daily Summary for January 2, 2021 Units:  Both    English   Metric
Daily Weekly Monthly Yearly Custom
  High: Low: Average:
Temperature: 71.8 °F /  22.1 °C 57 °F /  13.9 °C 62.8 °F /  17.1 °C
Dew Point: 59 °F /  15 °C 53.6 °F /  12 °C 56.3 °F /  13.5 °C
Humidity: 95% 55% 80%
Wind Speed: 13mph /  20.9km/h - 2.1mph /  3.3km/h
Wind Gust: 15mph /  24.1km/h - -
Wind- - West
Pressure: 30 in /  1014.6 hPa 29.9 in /  1012.5 hPa -
Precipitation: 0.06 in /  1.5 mm    
Historical Graphs
 
 
Tabular Data for January 2, 2021
Time Temperature Dew Point Pressure Wind Wind Speed Wind Gust Humidity Rainfall Rate (Hourly) solar
00:01 59.7 °F /  15.4 °C 54.1 °F /  12.3 °C 29.9in /  1012.5hPa WSW 0.9mph /  1.4km/h 3mph /  4.8km/h 82% 0in /  0.0mm 0 W/m2
00:06 59.7 °F /  15.4 °C 54 °F /  12.2 °C 29.9in /  1012.5hPa West 6mph /  9.7km/h 9mph /  14.5km/h 81% 0in /  0.0mm 0 W/m2
00:25 59 °F /  15 °C 53.8 °F /  12.1 °C 29.9in /  1012.5hPa WSW 4mph /  6.4km/h 9mph /  14.5km/h 83% 0in /  0.0mm 0 W/m2
00:30 59 °F /  15 °C 54.1 °F /  12.3 °C 29.9in /  1012.5hPa West 2.9mph /  4.7km/h 8mph /  12.9km/h 84% 0in /  0.0mm 0 W/m2
00:35 59 °F /  15 °C 54.1 °F /  12.3 °C 29.9in /  1012.5hPa WNW 4mph /  6.4km/h 9mph /  14.5km/h 84% 0in /  0.0mm 0 W/m2
00:40 59.2 °F /  15.1 °C 54.3 °F /  12.4 °C 29.9in /  1012.5hPa West 0.9mph /  1.4km/h 8mph /  12.9km/h 84% 0in /  0.0mm 0 W/m2
00:45 59.2 °F /  15.1 °C 54 °F /  12.2 °C 29.9in /  1012.5hPa West 2mph /  3.2km/h 11mph /  17.7km/h 83% 0in /  0.0mm 0 W/m2
00:50 59.4 °F /  15.2 °C 54.1 °F /  12.3 °C 29.9in /  1012.5hPa WSW 2mph /  3.2km/h 4mph /  6.4km/h 83% 0in /  0.0mm 0 W/m2
00:55 59.4 °F /  15.2 °C 54.1 °F /  12.3 °C 29.9in /  1012.5hPa West 2.9mph /  4.7km/h 11mph /  17.7km/h 83% 0in /  0.0mm 0 W/m2
01:01 59.4 °F /  15.2 °C 54.1 °F /  12.3 °C 29.9in /  1012.5hPa West 2.9mph /  4.7km/h 5mph /  8km/h 83% 0in /  0.0mm 0 W/m2
01:06 59.5 °F /  15.3 °C 54.3 °F /  12.4 °C 29.9in /  1012.5hPa West 4mph /  6.4km/h 8mph /  12.9km/h 83% 0in /  0.0mm 0 W/m2
01:11 59.5 °F /  15.3 °C 54.3 °F /  12.4 °C 29.9in /  1012.5hPa South 2mph /  3.2km/h 7mph /  11.3km/h 83% 0in /  0.0mm 0 W/m2
01:16 59.5 °F /  15.3 °C 54.3 °F /  12.4 °C 29.9in /  1012.5hPa Calm   3mph /  4.8km/h 83% 0in /  0.0mm 0 W/m2
01:21 59.7 °F /  15.4 °C 54.5 °F /  12.5 °C 29.9in /  1012.5hPa SW 2.9mph /  4.7km/h 7mph /  11.3km/h 83% 0in /  0.0mm 0 W/m2
01:26 59.7 °F /  15.4 °C 54.1 °F /  12.3 °C 29.9in /  1012.5hPa WSW 2mph /  3.2km/h 4mph /  6.4km/h 82% 0in /  0.0mm 0 W/m2
01:31 59.9 °F /  15.5 °C 54.3 °F /  12.4 °C 29.9in /  1012.5hPa WSW 0.9mph /  1.4km/h 7mph /  11.3km/h 82% 0in /  0.0mm 0 W/m2
01:36 59.7 °F /  15.4 °C 54.5 °F /  12.5 °C 29.9in /  1012.5hPa WNW 2mph /  3.2km/h 4mph /  6.4km/h 83% 0in /  0.0mm 0 W/m2
01:41 59.7 °F /  15.4 °C 54.5 °F /  12.5 °C 29.9in /  1012.5hPa Calm   1mph /  1.6km/h 83% 0in /  0.0mm 0 W/m2
01:46 59.7 °F /  15.4 °C 54.5 °F /  12.5 °C 29.9in /  1012.5hPa NW 0.9mph /  1.4km/h 2mph /  3.2km/h 83% 0in /  0.0mm 0 W/m2
01:51 59.5 °F /  15.3 °C 54.3 °F /  12.4 °C 29.9in /  1012.5hPa WNW 0.9mph /  1.4km/h 6mph /  9.7km/h 83% 0in /  0.0mm 0 W/m2
01:56 59.4 °F /  15.2 °C 54.5 °F /  12.5 °C 29.9in /  1012.5hPa WSW 2mph /  3.2km/h 4mph /  6.4km/h 84% 0in /  0.0mm 0 W/m2
02:01 59.2 °F /  15.1 °C 54.3 °F /  12.4 °C 29.9in /  1012.5hPa SW 2mph /  3.2km/h 3mph /  4.8km/h 84% 0in /  0.0mm 0 W/m2
02:06 59 °F /  15 °C 54.1 °F /  12.3 °C 29.9in /  1012.5hPa NW 2.9mph /  4.7km/h 5mph /  8km/h 84% 0in /  0.0mm 0 W/m2
02:11 59 °F /  15 °C 54.1 °F /  12.3 °C 29.9in /  1012.5hPa WNW 2.9mph /  4.7km/h 4mph /  6.4km/h 84% 0in /  0.0mm 0 W/m2
02:16 58.8 °F /  14.9 °C 54.3 °F /  12.4 °C 29.9in /  1012.5hPa WNW 0.9mph /  1.4km/h 2mph /  3.2km/h 85% 0in /  0.0mm 0 W/m2
02:21 58.8 °F /  14.9 °C 54.3 °F /  12.4 °C 29.9in /  1012.5hPa NW 2mph /  3.2km/h 3mph /  4.8km/h 85% 0in /  0.0mm 0 W/m2
02:26 58.6 °F /  14.8 °C 54.1 °F /  12.3 °C 29.9in /  1012.5hPa Calm   2mph /  3.2km/h 85% 0in /  0.0mm 0 W/m2
02:31 58.6 °F /  14.8 °C 54.5 °F /  12.5 °C 29.9in /  1012.5hPa Calm   2mph /  3.2km/h 86% 0in /  0.0mm 0 W/m2
02:36 58.5 °F /  14.7 °C 54.3 °F /  12.4 °C 29.9in /  1012.5hPa Calm   2mph /  3.2km/h 86% 0in /  0.0mm 0 W/m2
02:54 57.9 °F /  14.4 °C 54.1 °F /  12.3 °C 29.9in /  1012.5hPa Calm   2mph /  3.2km/h 87% 0in /  0.0mm 0 W/m2
02:59 57.9 °F /  14.4 °C 54.1 °F /  12.3 °C 29.9in /  1012.5hPa Calm     87% 0in /  0.0mm 0 W/m2
03:04 58.1 °F /  14.5 °C 54.3 °F /  12.4 °C 29.9in /  1012.5hPa Calm   4mph /  6.4km/h 87% 0in /  0.0mm 0 W/m2
03:09 58.3 °F /  14.6 °C 54.5 °F /  12.5 °C 29.9in /  1012.5hPa Calm   2mph /  3.2km/h 87% 0in /  0.0mm 0 W/m2
03:14 58.3 °F /  14.6 °C 54.5 °F /  12.5 °C 29.9in /  1012.5hPa Calm   1mph /  1.6km/h 87% 0in /  0.0mm 0 W/m2
03:19 58.5 °F /  14.7 °C 54.7 °F /  12.6 °C 29.9in /  1012.5hPa Calm   2mph /  3.2km/h 87% 0in /  0.0mm 0 W/m2
03:24 58.5 °F /  14.7 °C 54.7 °F /  12.6 °C 29.9in /  1012.5hPa Calm   1mph /  1.6km/h 87% 0in /  0.0mm 0 W/m2
03:29 58.3 °F /  14.6 °C 54.5 °F /  12.5 °C 29.9in /  1012.9hPa Calm   1mph /  1.6km/h 87% 0in /  0.0mm 0 W/m2
03:34 58.1 °F /  14.5 °C 54.3 °F /  12.4 °C 29.9in /  1012.5hPa Calm   1mph /  1.6km/h 87% 0in /  0.0mm 0 W/m2
03:39 57.9 °F /  14.4 °C 54.3 °F /  12.4 °C 29.9in /  1012.5hPa NNE 0.9mph /  1.4km/h 2mph /  3.2km/h 88% 0in /  0.0mm 0 W/m2
03:44 57.9 °F /  14.4 °C 54.3 °F /  12.4 °C 29.9in /  1012.5hPa Calm   1mph /  1.6km/h 88% 0in /  0.0mm 0 W/m2
03:49 57.7 °F /  14.3 °C 54.1 °F /  12.3 °C 29.9in /  1012.5hPa Calm   2mph /  3.2km/h 88% 0in /  0.0mm 0 W/m2
03:54 57.7 °F /  14.3 °C 54.5 °F /  12.5 °C 29.9in /  1012.5hPa Calm   3mph /  4.8km/h 89% 0in /  0.0mm 0 W/m2
03:59 57.6 °F /  14.2 °C 54.3 °F /  12.4 °C 29.9in /  1012.5hPa West 2mph /  3.2km/h 4mph /  6.4km/h 89% 0in /  0.0mm 0 W/m2
04:04 57.6 °F /  14.2 °C 54.7 °F /  12.6 °C 29.9in /  1012.5hPa West 2mph /  3.2km/h 2mph /  3.2km/h 90% 0in /  0.0mm 0 W/m2
04:09 57.6 °F /  14.2 °C 54.3 °F /  12.4 °C 29.9in /  1012.5hPa Calm   2mph /  3.2km/h 89% 0in /  0.0mm 0 W/m2
04:14 57.4 °F /  14.1 °C 54.1 °F /  12.3 °C 29.9in /  1012.5hPa Calm     89% 0in /  0.0mm 0 W/m2
04:33 57.4 °F /  14.1 °C 54.5 °F /  12.5 °C 29.9in /  1012.5hPa Calm   1mph /  1.6km/h 90% 0in /  0.0mm 0 W/m2
04:38 57.4 °F /  14.1 °C 54.5 °F /  12.5 °C 29.9in /  1012.5hPa Calm   1mph /  1.6km/h 90% 0in /  0.0mm 0 W/m2
04:43 57.4 °F /  14.1 °C 54.9 °F /  12.7 °C 29.9in /  1012.5hPa Calm     91% 0in /  0.0mm 0 W/m2
04:48 57.6 °F /  14.2 °C 55 °F /  12.8 °C 29.9in /  1012.5hPa West 0.9mph /  1.4km/h 1mph /  1.6km/h 91% 0in /  0.0mm 0 W/m2
04:54 57.6 °F /  14.2 °C 55 °F /  12.8 °C 29.9in /  1012.5hPa West 0.9mph /  1.4km/h 3mph /  4.8km/h 91% 0in /  0.0mm 0 W/m2
04:59 57.7 °F /  14.3 °C 55.2 °F /  12.9 °C 29.9in /  1012.5hPa West 2mph /  3.2km/h 2mph /  3.2km/h 91% 0in /  0.0mm 0 W/m2
05:04 57.7 °F /  14.3 °C 55.2 °F /  12.9 °C 29.9in /  1012.5hPa West 2mph /  3.2km/h 3mph /  4.8km/h 91% 0in /  0.0mm 0 W/m2
05:09 57.9 °F /  14.4 °C 55 °F /  12.8 °C 29.9in /  1012.5hPa Calm   2mph /  3.2km/h 90% 0in /  0.0mm 0 W/m2
05:14 57.9 °F /  14.4 °C 55 °F /  12.8 °C 29.9in /  1012.5hPa NNW 0.9mph /  1.4km/h 1mph /  1.6km/h 90% 0in /  0.0mm 0 W/m2
05:19 57.9 °F /  14.4 °C 55 °F /  12.8 °C 29.9in /  1012.5hPa WNW 2mph /  3.2km/h 2mph /  3.2km/h 90% 0in /  0.0mm 0 W/m2
05:24 57.9 °F /  14.4 °C 55 °F /  12.8 °C 29.9in /  1012.5hPa WNW 2mph /  3.2km/h 2mph /  3.2km/h 90% 0in /  0.0mm 0 W/m2
05:29 57.7 °F /  14.3 °C 54.9 °F /  12.7 °C 29.9in /  1012.5hPa Calm   2mph /  3.2km/h 90% 0in /  0.0mm 0 W/m2
05:47 57.4 °F /  14.1 °C 54.5 °F /  12.5 °C 29.9in /  1012.9hPa Calm     90% 0in /  0.0mm 0 W/m2
05:52 57.2 °F /  14 °C 54.7 °F /  12.6 °C 29.9in /  1012.9hPa Calm     91% 0in /  0.0mm 0 W/m2
05:57 57.2 °F /  14 °C 54.7 °F /  12.6 °C 29.9in /  1012.9hPa Calm   2mph /  3.2km/h 91% 0in /  0.0mm 0 W/m2
06:02 57.4 °F /  14.1 °C 54.9 °F /  12.7 °C 29.9in /  1012.9hPa WSW 0.9mph /  1.4km/h 2mph /  3.2km/h 91% 0in /  0.0mm 0 W/m2
06:07 57.4 °F /  14.1 °C 55 °F /  12.8 °C 29.9in /  1012.9hPa Calm   1mph /  1.6km/h 92% 0in /  0.0mm 0 W/m2
06:12 57.4 °F /  14.1 °C 54.9 °F /  12.7 °C 29.9in /  1012.9hPa Calm     91% 0in /  0.0mm 0 W/m2
06:29 57.6 °F /  14.2 °C 55 °F /  12.8 °C 29.9in /  1012.9hPa Calm   2mph /  3.2km/h 91% 0in /  0.0mm 9 W/m2
06:34 57.7 °F /  14.3 °C 55.2 °F /  12.9 °C 29.9in /  1012.9hPa Calm   3mph /  4.8km/h 91% 0in /  0.0mm 16 W/m2
06:39 57.7 °F /  14.3 °C 55.2 °F /  12.9 °C 29.9in /  1013.2hPa Calm   1mph /  1.6km/h 91% 0in /  0.0mm 23 W/m2
06:44 57.9 °F /  14.4 °C 55.2 °F /  12.9 °C 29.9in /  1013.2hPa NW 0.9mph /  1.4km/h 3mph /  4.8km/h 91% 0in /  0.0mm 33 W/m2
06:49 57.9 °F /  14.4 °C 55.2 °F /  12.9 °C 29.9in /  1013.2hPa Calm   1mph /  1.6km/h 91% 0in /  0.0mm 37 W/m2
06:54 57.9 °F /  14.4 °C 55.2 °F /  12.9 °C 29.9in /  1013.2hPa Calm   3mph /  4.8km/h 91% 0in /  0.0mm 35 W/m2
06:59 58.1 °F /  14.5 °C 55.4 °F /  13 °C 29.9in /  1013.2hPa Calm   2mph /  3.2km/h 91% 0in /  0.0mm 37 W/m2
07:04 58.3 °F /  14.6 °C 55.6 °F /  13.1 °C 29.9in /  1013.2hPa ENE 0.9mph /  1.4km/h 2mph /  3.2km/h 91% 0in /  0.0mm 42 W/m2
07:09 58.5 °F /  14.7 °C 55.8 °F /  13.2 °C 29.9in /  1013.2hPa Calm   1mph /  1.6km/h 91% 0in /  0.0mm 47 W/m2
07:14 58.6 °F /  14.8 °C 55.9 °F /  13.3 °C 29.9in /  1013.2hPa Calm   1mph /  1.6km/h 91% 0in /  0.0mm 53 W/m2
07:19 58.6 °F /  14.8 °C 55.8 °F /  13.2 °C 29.9in /  1013.2hPa Calm   2mph /  3.2km/h 90% 0in /  0.0mm 70 W/m2
07:24 58.8 °F /  14.9 °C 55.9 °F /  13.3 °C 29.9in /  1013.2hPa Calm     90% 0in /  0.0mm 84 W/m2
07:29 59.2 °F /  15.1 °C 56.3 °F /  13.5 °C 29.9in /  1013.2hPa WNW 0.9mph /  1.4km/h 2mph /  3.2km/h 90% 0in /  0.0mm 62 W/m2
07:34 59.2 °F /  15.1 °C 56.3 °F /  13.5 °C 29.9in /  1013.2hPa Calm     90% 0in /  0.0mm 54 W/m2
07:39 59.4 °F /  15.2 °C 56.1 °F /  13.4 °C 29.9in /  1013.2hPa Calm   2mph /  3.2km/h 89% 0in /  0.0mm 81 W/m2
07:44 59.5 °F /  15.3 °C 56.3 °F /  13.5 °C 29.9in /  1013.2hPa Calm   2mph /  3.2km/h 89% 0in /  0.0mm 93 W/m2
07:49 59.5 °F /  15.3 °C 56.3 °F /  13.5 °C 29.9in /  1013.2hPa Calm   2mph /  3.2km/h 89% 0in /  0.0mm 100 W/m2
07:54 59.7 °F /  15.4 °C 56.5 °F /  13.6 °C 29.9in /  1013.2hPa South 0.9mph /  1.4km/h 2mph /  3.2km/h 89% 0in /  0.0mm 105 W/m2
07:59 59.7 °F /  15.4 °C 56.5 °F /  13.6 °C 29.9in /  1013.2hPa WNW 2mph /  3.2km/h 3mph /  4.8km/h 89% 0in /  0.0mm 102 W/m2
08:04 60.1 °F /  15.6 °C 56.5 °F /  13.6 °C 29.9in /  1013.2hPa WNW 0.9mph /  1.4km/h 4mph /  6.4km/h 88% 0in /  0.0mm 97 W/m2
08:09 60.1 °F /  15.6 °C 56.5 °F /  13.6 °C 29.9in /  1013.5hPa NNW 2mph /  3.2km/h 3mph /  4.8km/h 88% 0in /  0.0mm 95 W/m2
08:14 60.3 °F /  15.7 °C 56.7 °F /  13.7 °C 29.9in /  1013.5hPa Calm   4mph /  6.4km/h 88% 0in /  0.0mm 100 W/m2
08:19 60.3 °F /  15.7 °C 56.3 °F /  13.5 °C 29.9in /  1013.5hPa WNW 0.9mph /  1.4km/h 2mph /  3.2km/h 87% 0in /  0.0mm 109 W/m2
08:24 60.4 °F /  15.8 °C 56.5 °F /  13.6 °C 29.9in /  1013.5hPa East 2mph /  3.2km/h 4mph /  6.4km/h 87% 0in /  0.0mm 125 W/m2
08:29 60.6 °F /  15.9 °C 56.7 °F /  13.7 °C 29.9in /  1013.5hPa SW 0.9mph /  1.4km/h 2mph /  3.2km/h 87% 0in /  0.0mm 146 W/m2
08:34 60.8 °F /  16 °C 57.2 °F /  14 °C 29.9in /  1013.5hPa NNW 2mph /  3.2km/h 4mph /  6.4km/h 88% 0in /  0.0mm 151 W/m2
08:39 60.8 °F /  16 °C 56.8 °F /  13.8 °C 29.9in /  1013.5hPa SSE 0.9mph /  1.4km/h 3mph /  4.8km/h 87% 0in /  0.0mm 163 W/m2
08:44 60.8 °F /  16 °C 56.8 °F /  13.8 °C 29.9in /  1013.5hPa Calm   2mph /  3.2km/h 87% 0in /  0.0mm 197 W/m2
08:49 61 °F /  16.1 °C 57 °F /  13.9 °C 29.9in /  1013.5hPa NNW 2mph /  3.2km/h 4mph /  6.4km/h 87% 0in /  0.0mm 179 W/m2
08:54 61.2 °F /  16.2 °C 57.2 °F /  14 °C 29.9in /  1013.5hPa WSW 4.9mph /  7.9km/h 6mph /  9.7km/h 87% 0in /  0.0mm 171 W/m2
09:13 61.3 °F /  16.3 °C 57.4 °F /  14.1 °C 29.9in /  1013.5hPa West 0.9mph /  1.4km/h 4mph /  6.4km/h 87% 0in /  0.0mm 243 W/m2
09:18 61.5 °F /  16.4 °C 57.4 °F /  14.1 °C 29.9in /  1013.5hPa WSW 2.9mph /  4.7km/h 7mph /  11.3km/h 86% 0in /  0.0mm 218 W/m2
09:23 61.5 °F /  16.4 °C 57.4 °F /  14.1 °C 29.9in /  1013.5hPa NW 2mph /  3.2km/h 4mph /  6.4km/h 86% 0in /  0.0mm 258 W/m2
09:28 61.9 °F /  16.6 °C 57.6 °F /  14.2 °C 29.9in /  1013.5hPa WSW 2.9mph /  4.7km/h 6mph /  9.7km/h 86% 0in /  0.0mm 250 W/m2
09:33 61.9 °F /  16.6 °C 57.6 °F /  14.2 °C 29.9in /  1013.9hPa WSW 6.9mph /  11.1km/h 7mph /  11.3km/h 86% 0in /  0.0mm 236 W/m2
09:38 62.1 °F /  16.7 °C 57.7 °F /  14.3 °C 29.9in /  1013.9hPa WNW 2mph /  3.2km/h 4mph /  6.4km/h 86% 0in /  0.0mm 193 W/m2
09:43 62.2 °F /  16.8 °C 57.7 °F /  14.3 °C 29.9in /  1013.9hPa West 2mph /  3.2km/h 4mph /  6.4km/h 85% 0in /  0.0mm 188 W/m2
09:48 62.2 °F /  16.8 °C 57.7 °F /  14.3 °C 29.9in /  1013.9hPa NW 2mph /  3.2km/h 5mph /  8km/h 85% 0in /  0.0mm 165 W/m2
09:53 62.2 °F /  16.8 °C 57.7 °F /  14.3 °C 29.9in /  1013.9hPa NW 4mph /  6.4km/h 7mph /  11.3km/h 85% 0in /  0.0mm 176 W/m2
10:11 63 °F /  17.2 °C 58.1 °F /  14.5 °C 29.9in /  1013.9hPa NW 2mph /  3.2km/h 3mph /  4.8km/h 84% 0in /  0.0mm 239 W/m2
10:16 63 °F /  17.2 °C 57.7 °F /  14.3 °C 29.9in /  1013.9hPa Calm   5mph /  8km/h 83% 0in /  0.0mm 156 W/m2
10:21 63 °F /  17.2 °C 58.1 °F /  14.5 °C 29.9in /  1013.9hPa NE 0.9mph /  1.4km/h 6mph /  9.7km/h 84% 0in /  0.0mm 167 W/m2
10:26 63 °F /  17.2 °C 58.1 °F /  14.5 °C 29.9in /  1013.9hPa SW 0.9mph /  1.4km/h 4mph /  6.4km/h 84% 0in /  0.0mm 236 W/m2
10:31 63 °F /  17.2 °C 58.1 °F /  14.5 °C 29.9in /  1013.9hPa NNW 2mph /  3.2km/h 2mph /  3.2km/h 84% 0in /  0.0mm 218 W/m2
10:36 63.1 °F /  17.3 °C 58.3 °F /  14.6 °C 29.9in /  1013.9hPa SSW 2mph /  3.2km/h 4mph /  6.4km/h 84% 0in /  0.0mm 341 W/m2
10:41 63.3 °F /  17.4 °C 58.1 °F /  14.5 °C 29.9in /  1013.9hPa WNW 4mph /  6.4km/h 7mph /  11.3km/h 83% 0in /  0.0mm 176 W/m2
10:47 63.5 °F /  17.5 °C 58.3 °F /  14.6 °C 29.9in /  1013.9hPa Calm   3mph /  4.8km/h 83% 0in /  0.0mm 183 W/m2
10:52 63.7 °F /  17.6 °C 58.1 °F /  14.5 °C 29.9in /  1013.9hPa SW 0.9mph /  1.4km/h 7mph /  11.3km/h 82% 0in /  0.0mm 232 W/m2
10:57 63.7 °F /  17.6 °C 57.7 °F /  14.3 °C 29.9in /  1013.9hPa NW 4mph /  6.4km/h 6mph /  9.7km/h 81% 0in /  0.0mm 338 W/m2
11:02 63.9 °F /  17.7 °C 58.3 °F /  14.6 °C 29.9in /  1013.9hPa WNW 2.9mph /  4.7km/h 8mph /  12.9km/h 82% 0in /  0.0mm 557 W/m2
11:07 64 °F /  17.8 °C 58.1 °F /  14.5 °C 29.9in /  1013.9hPa West 2.9mph /  4.7km/h 6mph /  9.7km/h 81% 0in /  0.0mm 313 W/m2
11:12 64.2 °F /  17.9 °C 57.9 °F /  14.4 °C 29.9in /  1013.9hPa WSW 6.9mph /  11.1km/h 8mph /  12.9km/h 80% 0in /  0.0mm 345 W/m2
11:17 64.6 °F /  18.1 °C 58.3 °F /  14.6 °C 29.9in /  1013.9hPa WNW 2.9mph /  4.7km/h 6mph /  9.7km/h 80% 0in /  0.0mm 348 W/m2
11:22 64.8 °F /  18.2 °C 58.1 °F /  14.5 °C 29.9in /  1013.9hPa NW 6.9mph /  11.1km/h 8mph /  12.9km/h 79% 0in /  0.0mm 239 W/m2
11:27 64.6 °F /  18.1 °C 58.3 °F /  14.6 °C 29.9in /  1013.9hPa West 6mph /  9.7km/h 6mph /  9.7km/h 80% 0.02in /  0.5mm 118 W/m2
11:32 63.9 °F /  17.7 °C 58.6 °F /  14.8 °C 29.9in /  1013.9hPa West 2mph /  3.2km/h 4mph /  6.4km/h 83% 0.02in /  0.5mm 127 W/m2
11:37 63.3 °F /  17.4 °C 58.8 °F /  14.9 °C 29.9in /  1013.9hPa West 2.9mph /  4.7km/h 3mph /  4.8km/h 85% 0.02in /  0.5mm 241 W/m2
11:42 63.1 °F /  17.3 °C 58.6 °F /  14.8 °C 29.9in /  1013.9hPa WNW 2mph /  3.2km/h 5mph /  8km/h 85% 0.02in /  0.5mm 350 W/m2
11:47 63.9 °F /  17.7 °C 59 °F /  15 °C 29.9in /  1013.9hPa Calm   3mph /  4.8km/h 84% 0.02in /  0.5mm 267 W/m2
11:52 64.2 °F /  17.9 °C 59 °F /  15 °C 29.9in /  1013.9hPa NW 4.9mph /  7.9km/h 8mph /  12.9km/h 83% 0.02in /  0.5mm 188 W/m2
11:57 64.6 °F /  18.1 °C 58.6 °F /  14.8 °C 29.9in /  1013.9hPa WSW 2mph /  3.2km/h 6mph /  9.7km/h 81% 0.02in /  0.5mm 253 W/m2
12:02 64.9 °F /  18.3 °C 58.6 °F /  14.8 °C 29.9in /  1013.9hPa NW 4mph /  6.4km/h 8mph /  12.9km/h 80% 0.02in /  0.5mm 780 W/m2
12:07 65.7 °F /  18.7 °C 58.6 °F /  14.8 °C 29.9in /  1013.9hPa WSW 4.9mph /  7.9km/h 10mph /  16.1km/h 78% 0.02in /  0.5mm 749 W/m2
12:12 65.5 °F /  18.6 °C 58.1 °F /  14.5 °C 29.9in /  1013.9hPa West 2mph /  3.2km/h 4mph /  6.4km/h 77% 0.02in /  0.5mm 104 W/m2
12:17 65.3 °F /  18.5 °C 59 °F /  15 °C 29.9in /  1013.9hPa Calm   10mph /  16.1km/h 80% 0.02in /  0.5mm 127 W/m2
12:22 64.9 °F /  18.3 °C 57.9 °F /  14.4 °C 29.9in /  1013.9hPa Calm   3mph /  4.8km/h 78% 0.02in /  0.5mm 206 W/m2
12:27 64.9 °F /  18.3 °C 57.9 °F /  14.4 °C 29.9in /  1013.9hPa Calm   8mph /  12.9km/h 78% 0in /  0.0mm 387 W/m2
12:32 65.1 °F /  18.4 °C 58.5 °F /  14.7 °C 29.9in /  1013.9hPa North 0.9mph /  1.4km/h 2mph /  3.2km/h 79% 0in /  0.0mm 654 W/m2
12:37 65.3 °F /  18.5 °C 58.3 °F /  14.6 °C 29.9in /  1013.9hPa WSW 4mph /  6.4km/h 5mph /  8km/h 78% 0in /  0.0mm 497 W/m2
12:42 66 °F /  18.9 °C 59 °F /  15 °C 29.9in /  1013.5hPa Calm   1mph /  1.6km/h 78% 0in /  0.0mm 635 W/m2
12:47 66.7 °F /  19.3 °C 58.6 °F /  14.8 °C 29.9in /  1013.5hPa WNW 4.9mph /  7.9km/h 10mph /  16.1km/h 75% 0in /  0.0mm 464 W/m2
12:52 66.7 °F /  19.3 °C 57.7 °F /  14.3 °C 29.9in /  1013.5hPa West 6.9mph /  11.1km/h 8mph /  12.9km/h 73% 0in /  0.0mm 244 W/m2
12:57 66.6 °F /  19.2 °C 57.2 °F /  14 °C 29.9in /  1013.5hPa NW 6.9mph /  11.1km/h 8mph /  12.9km/h 72% 0in /  0.0mm 188 W/m2
13:02 66.4 °F /  19.1 °C 57.4 °F /  14.1 °C 29.9in /  1013.5hPa West 4mph /  6.4km/h 9mph /  14.5km/h 73% 0in /  0.0mm 211 W/m2
13:07 66.7 °F /  19.3 °C 57 °F /  13.9 °C 29.9in /  1013.5hPa NW 4.9mph /  7.9km/h 8mph /  12.9km/h 71% 0in /  0.0mm 1004 W/m2
13:12 67.6 °F /  19.8 °C 57.9 °F /  14.4 °C 29.9in /  1013.5hPa WNW 4mph /  6.4km/h 10mph /  16.1km/h 71% 0in /  0.0mm 427 W/m2
13:17 68.2 °F /  20.1 °C 58.1 °F /  14.5 °C 29.9in /  1013.5hPa West 6mph /  9.7km/h 10mph /  16.1km/h 70% 0in /  0.0mm 1020 W/m2
13:22 68.5 °F /  20.3 °C 56.7 °F /  13.7 °C 29.9in /  1013.5hPa West 6mph /  9.7km/h 11mph /  17.7km/h 66% 0in /  0.0mm 1021 W/m2
13:27 68.4 °F /  20.2 °C 57.7 °F /  14.3 °C 29.9in /  1013.5hPa WNW 2.9mph /  4.7km/h 8mph /  12.9km/h 69% 0in /  0.0mm 944 W/m2
13:32 68.4 °F /  20.2 °C 57.4 °F /  14.1 °C 29.9in /  1013.5hPa WSW 6.9mph /  11.1km/h 7mph /  11.3km/h 68% 0in /  0.0mm 367 W/m2
13:37 68.2 °F /  20.1 °C 57.6 °F /  14.2 °C 29.9in /  1013.5hPa WSW 4.9mph /  7.9km/h 6mph /  9.7km/h 69% 0in /  0.0mm 441 W/m2
13:42 68 °F /  20 °C 57.4 °F /  14.1 °C 29.9in /  1013.5hPa West 2.9mph /  4.7km/h 6mph /  9.7km/h 69% 0in /  0.0mm 357 W/m2
13:47 68 °F /  20 °C 57.4 °F /  14.1 °C 29.9in /  1013.5hPa WNW 4mph /  6.4km/h 4mph /  6.4km/h 69% 0in /  0.0mm 921 W/m2
13:52 68.4 °F /  20.2 °C 57.7 °F /  14.3 °C 29.9in /  1013.5hPa NE 0.9mph /  1.4km/h 3mph /  4.8km/h 69% 0in /  0.0mm 960 W/m2
13:57 69.1 °F /  20.6 °C 58.5 °F /  14.7 °C 29.9in /  1013.5hPa North 0.9mph /  1.4km/h 9mph /  14.5km/h 69% 0in /  0.0mm 965 W/m2
14:02 69.6 °F /  20.9 °C 59 °F /  15 °C 29.9in /  1013.2hPa WSW 6.9mph /  11.1km/h 8mph /  12.9km/h 69% 0in /  0.0mm 911 W/m2
14:07 69.8 °F /  21 °C 58.3 °F /  14.6 °C 29.9in /  1013.5hPa West 6.9mph /  11.1km/h 10mph /  16.1km/h 67% 0in /  0.0mm 949 W/m2
14:12 69.6 °F /  20.9 °C 58.1 °F /  14.5 °C 29.9in /  1013.2hPa WSW 2.9mph /  4.7km/h 9mph /  14.5km/h 67% 0in /  0.0mm 979 W/m2
14:17 70 °F /  21.1 °C 57.7 °F /  14.3 °C 29.9in /  1013.2hPa WSW 2mph /  3.2km/h 8mph /  12.9km/h 65% 0in /  0.0mm 1009 W/m2
14:22 70.2 °F /  21.2 °C 58.6 °F /  14.8 °C 29.9in /  1013.2hPa NW 2mph /  3.2km/h 4mph /  6.4km/h 67% 0in /  0.0mm 408 W/m2
14:27 70 °F /  21.1 °C 57.7 °F /  14.3 °C 29.9in /  1013.2hPa West 2.9mph /  4.7km/h 7mph /  11.3km/h 65% 0in /  0.0mm 281 W/m2
14:32 69.4 °F /  20.8 °C 57.6 °F /  14.2 °C 29.9in /  1013.2hPa NW 2mph /  3.2km/h 6mph /  9.7km/h 66% 0in /  0.0mm 135 W/m2
14:37 69.3 °F /  20.7 °C 57.4 °F /  14.1 °C 29.9in /  1013.5hPa West 6mph /  9.7km/h 8mph /  12.9km/h 66% 0in /  0.0mm 193 W/m2
14:42 69.3 °F /  20.7 °C 57.9 °F /  14.4 °C 29.9in /  1013.2hPa WNW 4mph /  6.4km/h 7mph /  11.3km/h 67% 0in /  0.0mm 1062 W/m2
14:47 69.4 °F /  20.8 °C 57.2 °F /  14 °C 29.9in /  1013.2hPa WSW 8.1mph /  13km/h 8mph /  12.9km/h 65% 0in /  0.0mm 220 W/m2
14:52 69.4 °F /  20.8 °C 55.9 °F /  13.3 °C 29.9in /  1013.2hPa WNW 2.9mph /  4.7km/h 9mph /  14.5km/h 62% 0in /  0.0mm 965 W/m2
14:57 70 °F /  21.1 °C 55.9 °F /  13.3 °C 29.9in /  1013.2hPa West 6mph /  9.7km/h 8mph /  12.9km/h 61% 0in /  0.0mm 232 W/m2
15:02 69.6 °F /  20.9 °C 55.6 °F /  13.1 °C 29.9in /  1013.2hPa WNW 4mph /  6.4km/h 9mph /  14.5km/h 61% 0in /  0.0mm 267 W/m2
15:07 69.4 °F /  20.8 °C 56.7 °F /  13.7 °C 29.9in /  1013.2hPa SW 4mph /  6.4km/h 6mph /  9.7km/h 64% 0in /  0.0mm 1071 W/m2
15:24 69.8 °F /  21 °C 57 °F /  13.9 °C 29.9in /  1013.2hPa WSW 4mph /  6.4km/h 10mph /  16.1km/h 64% 0in /  0.0mm 983 W/m2
15:29 70.3 °F /  21.3 °C 57.2 °F /  14 °C 29.9in /  1013.2hPa WNW 4mph /  6.4km/h 9mph /  14.5km/h 63% 0in /  0.0mm 896 W/m2
15:34 70.7 °F /  21.5 °C 57.9 °F /  14.4 °C 29.9in /  1013.2hPa NW 4mph /  6.4km/h 6mph /  9.7km/h 64% 0in /  0.0mm 186 W/m2
15:39 70.7 °F /  21.5 °C 57.6 °F /  14.2 °C 29.9in /  1013.2hPa West 6.9mph /  11.1km/h 7mph /  11.3km/h 63% 0in /  0.0mm 374 W/m2
15:44 71.2 °F /  21.8 °C 57.6 °F /  14.2 °C 29.9in /  1013.2hPa NW 2.9mph /  4.7km/h 9mph /  14.5km/h 62% 0in /  0.0mm 912 W/m2
15:49 71.8 °F /  22.1 °C 58.1 °F /  14.5 °C 29.9in /  1013.2hPa WNW 4mph /  6.4km/h 9mph /  14.5km/h 62% 0in /  0.0mm 229 W/m2
15:54 71.2 °F /  21.8 °C 57.6 °F /  14.2 °C 29.9in /  1012.9hPa WSW 2.9mph /  4.7km/h 6mph /  9.7km/h 62% 0in /  0.0mm 207 W/m2
15:59 71.1 °F /  21.7 °C 57.7 °F /  14.3 °C 29.9in /  1012.9hPa WSW 2mph /  3.2km/h 9mph /  14.5km/h 63% 0in /  0.0mm 153 W/m2
16:04 70.5 °F /  21.4 °C 58.1 °F /  14.5 °C 29.9in /  1012.9hPa NW 0.9mph /  1.4km/h 7mph /  11.3km/h 65% 0in /  0.0mm 503 W/m2
16:09 71.1 °F /  21.7 °C 58.3 °F /  14.6 °C 29.9in /  1012.9hPa NNW 4.9mph /  7.9km/h 7mph /  11.3km/h 64% 0in /  0.0mm 773 W/m2
16:14 71.6 °F /  22 °C 57.9 °F /  14.4 °C 29.9in /  1012.9hPa West 2.9mph /  4.7km/h 7mph /  11.3km/h 62% 0in /  0.0mm 172 W/m2
16:19 71.2 °F /  21.8 °C 57 °F /  13.9 °C 29.9in /  1012.9hPa West 6.9mph /  11.1km/h 10mph /  16.1km/h 61% 0in /  0.0mm 220 W/m2
16:25 70.5 °F /  21.4 °C 57.4 °F /  14.1 °C 29.9in /  1012.9hPa West 2.9mph /  4.7km/h 15mph /  24.1km/h 63% 0in /  0.0mm 149 W/m2
16:41 70 °F /  21.1 °C 57.2 °F /  14 °C 29.9in /  1012.9hPa West 8.9mph /  14.3km/h 9mph /  14.5km/h 64% 0in /  0.0mm 817 W/m2
16:46 70.5 °F /  21.4 °C 55 °F /  12.8 °C 29.9in /  1013.2hPa NNE 13mph /  20.9km/h 13mph /  20.9km/h 58% 0in /  0.0mm 677 W/m2
16:51 70.5 °F /  21.4 °C 55 °F /  12.8 °C 29.9in /  1012.9hPa NW 4.9mph /  7.9km/h 9mph /  14.5km/h 58% 0in /  0.0mm 701 W/m2
16:56 70.5 °F /  21.4 °C 54.1 °F /  12.3 °C 29.9in /  1012.9hPa NW 4mph /  6.4km/h 12mph /  19.3km/h 56% 0in /  0.0mm 740 W/m2
17:01 70.5 °F /  21.4 °C 54.5 °F /  12.5 °C 29.9in /  1012.9hPa NW 0.9mph /  1.4km/h 9mph /  14.5km/h 57% 0in /  0.0mm 733 W/m2
17:06 71.1 °F /  21.7 °C 55 °F /  12.8 °C 29.9in /  1013.2hPa WNW 6.9mph /  11.1km/h 12mph /  19.3km/h 57% 0in /  0.0mm 710 W/m2
17:11 70.9 °F /  21.6 °C 54 °F /  12.2 °C 29.9in /  1012.9hPa NW 2.9mph /  4.7km/h 8mph /  12.9km/h 55% 0in /  0.0mm 302 W/m2
17:16 70.5 °F /  21.4 °C 53.6 °F /  12 °C 29.9in /  1013.2hPa WSW 4mph /  6.4km/h 9mph /  14.5km/h 55% 0in /  0.0mm 408 W/m2
17:21 70.9 °F /  21.6 °C 54.9 °F /  12.7 °C 29.9in /  1013.2hPa West 2.9mph /  4.7km/h 8mph /  12.9km/h 57% 0in /  0.0mm 673 W/m2
17:26 71.4 °F /  21.9 °C 55.9 °F /  13.3 °C 29.9in /  1013.2hPa WNW 2.9mph /  4.7km/h 6mph /  9.7km/h 58% 0in /  0.0mm 621 W/m2
17:31 71.2 °F /  21.8 °C 55.8 °F /  13.2 °C 29.9in /  1013.2hPa SW 6.9mph /  11.1km/h 9mph /  14.5km/h 58% 0in /  0.0mm 251 W/m2
17:36 70.7 °F /  21.5 °C 55.2 °F /  12.9 °C 29.9in /  1013.2hPa WSW 2mph /  3.2km/h 5mph /  8km/h 58% 0in /  0.0mm 225 W/m2
17:41 70.2 °F /  21.2 °C 55.6 °F /  13.1 °C 29.9in /  1013.2hPa WNW 4.9mph /  7.9km/h 11mph /  17.7km/h 60% 0in /  0.0mm 211 W/m2
17:46 69.4 °F /  20.8 °C 55.9 °F /  13.3 °C 29.9in /  1013.2hPa West 2.9mph /  4.7km/h 9mph /  14.5km/h 62% 0in /  0.0mm 176 W/m2
17:51 69.3 °F /  20.7 °C 55.8 °F /  13.2 °C 29.9in /  1013.2hPa WNW 4.9mph /  7.9km/h 8mph /  12.9km/h 62% 0in /  0.0mm 155 W/m2
17:56 69.1 °F /  20.6 °C 56.5 °F /  13.6 °C 29.9in /  1013.2hPa WNW 2mph /  3.2km/h 4mph /  6.4km/h 64% 0in /  0.0mm 146 W/m2
18:13 67.8 °F /  19.9 °C 56.8 °F /  13.8 °C 29.9in /  1013.2hPa WNW 2.9mph /  4.7km/h 8mph /  12.9km/h 68% 0in /  0.0mm 148 W/m2
18:18 67.6 °F /  19.8 °C 57 °F /  13.9 °C 29.9in /  1013.2hPa WNW 4mph /  6.4km/h 6mph /  9.7km/h 69% 0in /  0.0mm 121 W/m2
18:23 67.5 °F /  19.7 °C 57.4 °F /  14.1 °C 29.9in /  1013.2hPa WNW 2.9mph /  4.7km/h 4mph /  6.4km/h 70% 0in /  0.0mm 139 W/m2
18:28 67.5 °F /  19.7 °C 57 °F /  13.9 °C 29.9in /  1013.2hPa West 2.9mph /  4.7km/h 7mph /  11.3km/h 69% 0in /  0.0mm 176 W/m2
18:33 67.6 °F /  19.8 °C 57.6 °F /  14.2 °C 29.9in /  1013.2hPa West 2.9mph /  4.7km/h 6mph /  9.7km/h 70% 0in /  0.0mm 403 W/m2
18:38 68.2 °F /  20.1 °C 57.2 °F /  14 °C 29.9in /  1013.2hPa West 0.9mph /  1.4km/h 5mph /  8km/h 68% 0in /  0.0mm 225 W/m2
18:43 68.4 °F /  20.2 °C 57.4 °F /  14.1 °C 29.9in /  1013.2hPa WNW 0.9mph /  1.4km/h 7mph /  11.3km/h 68% 0in /  0.0mm 156 W/m2
19:00 68.2 °F /  20.1 °C 57.2 °F /  14 °C 29.9in /  1013.2hPa West 2.9mph /  4.7km/h 4mph /  6.4km/h 68% 0in /  0.0mm 127 W/m2
19:05 68 °F /  20 °C 57.4 °F /  14.1 °C 29.9in /  1013.2hPa West 2mph /  3.2km/h 3mph /  4.8km/h 69% 0in /  0.0mm 135 W/m2
19:10 68 °F /  20 °C 57.9 °F /  14.4 °C 29.9in /  1013.5hPa WNW 0.9mph /  1.4km/h 4mph /  6.4km/h 70% 0in /  0.0mm 139 W/m2
19:15 68.2 °F /  20.1 °C 58.1 °F /  14.5 °C 29.9in /  1013.5hPa NW 2mph /  3.2km/h 6mph /  9.7km/h 70% 0in /  0.0mm 121 W/m2
19:20 68 °F /  20 °C 57.9 °F /  14.4 °C 29.9in /  1013.5hPa WNW 0.9mph /  1.4km/h 4mph /  6.4km/h 70% 0in /  0.0mm 93 W/m2
19:25 67.8 °F /  19.9 °C 57.7 °F /  14.3 °C 29.9in /  1013.5hPa WNW 2mph /  3.2km/h 4mph /  6.4km/h 70% 0in /  0.0mm 120 W/m2
19:30 67.8 °F /  19.9 °C 57.7 °F /  14.3 °C 29.9in /  1013.5hPa West 2mph /  3.2km/h 6mph /  9.7km/h 70% 0in /  0.0mm 97 W/m2
19:35 67.8 °F /  19.9 °C 58.1 °F /  14.5 °C 29.9in /  1013.5hPa WSW 2.9mph /  4.7km/h 3mph /  4.8km/h 71% 0in /  0.0mm 102 W/m2
19:40 67.8 °F /  19.9 °C 58.1 °F /  14.5 °C 29.9in /  1013.5hPa West 2mph /  3.2km/h 4mph /  6.4km/h 71% 0in /  0.0mm 72 W/m2
19:45 67.6 °F /  19.8 °C 57.6 °F /  14.2 °C 29.9in /  1013.5hPa NW 8.9mph /  14.3km/h 14mph /  22.5km/h 70% 0in /  0.0mm 56 W/m2
19:50 66.9 °F /  19.4 °C 55.9 °F /  13.3 °C 29.9in /  1013.5hPa West 6.9mph /  11.1km/h 13mph /  20.9km/h 68% 0in /  0.0mm 51 W/m2
20:07 65.5 °F /  18.6 °C 55.8 °F /  13.2 °C 29.9in /  1013.9hPa West 2.9mph /  4.7km/h 8mph /  12.9km/h 71% 0in /  0.0mm 16 W/m2
20:12 65.1 °F /  18.4 °C 55.4 °F /  13 °C 29.9in /  1013.9hPa WSW 2.9mph /  4.7km/h 8mph /  12.9km/h 71% 0in /  0.0mm 12 W/m2
20:17 64.9 °F /  18.3 °C 54.9 °F /  12.7 °C 29.9in /  1013.9hPa WNW 2mph /  3.2km/h 8mph /  12.9km/h 70% 0in /  0.0mm 11 W/m2
20:22 64.9 °F /  18.3 °C 55.4 °F /  13 °C 29.9in /  1013.9hPa WSW 2mph /  3.2km/h 4mph /  6.4km/h 71% 0in /  0.0mm 11 W/m2
20:27 64.8 °F /  18.2 °C 55.6 °F /  13.1 °C 29.9in /  1013.9hPa WSW 2.9mph /  4.7km/h 6mph /  9.7km/h 72% 0in /  0.0mm 9 W/m2
20:32 64.6 °F /  18.1 °C 55.4 °F /  13 °C 29.9in /  1013.9hPa WNW 4mph /  6.4km/h 4mph /  6.4km/h 72% 0in /  0.0mm 9 W/m2
20:38 64 °F /  17.8 °C 55.6 °F /  13.1 °C 30in /  1014.2hPa WSW 4mph /  6.4km/h 6mph /  9.7km/h 74% 0in /  0.0mm 9 W/m2
20:53 62.8 °F /  17.1 °C 57.6 °F /  14.2 °C 29.9in /  1013.9hPa Calm     83% 0in /  0.0mm 0 W/m2
20:58 62.2 °F /  16.8 °C 57.7 °F /  14.3 °C 30in /  1014.2hPa Calm   2mph /  3.2km/h 85% 0.01in /  0.2mm 0 W/m2
21:03 61.9 °F /  16.6 °C 57.9 °F /  14.4 °C 29.9in /  1013.9hPa Calm   2mph /  3.2km/h 87% 0.01in /  0.2mm 0 W/m2
21:08 61.5 °F /  16.4 °C 57.9 °F /  14.4 °C 29.9in /  1013.9hPa WSW 0.9mph /  1.4km/h 2mph /  3.2km/h 88% 0.01in /  0.2mm 0 W/m2
21:13 61.3 °F /  16.3 °C 58.1 °F /  14.5 °C 29.9in /  1013.9hPa Calm   1mph /  1.6km/h 89% 0.01in /  0.2mm 0 W/m2
21:19 61 °F /  16.1 °C 57.7 °F /  14.3 °C 30in /  1014.2hPa Calm   2mph /  3.2km/h 89% 0.01in /  0.2mm 0 W/m2
21:24 60.4 °F /  15.8 °C 57.2 °F /  14 °C 30in /  1014.2hPa Calm     89% 0.01in /  0.2mm 0 W/m2
21:29 60.1 °F /  15.6 °C 57.2 °F /  14 °C 30in /  1014.2hPa Calm   2mph /  3.2km/h 90% 0.01in /  0.2mm 0 W/m2
21:34 59.9 °F /  15.5 °C 57.2 °F /  14 °C 30in /  1014.2hPa Calm     91% 0.01in /  0.2mm 0 W/m2
21:39 59.5 °F /  15.3 °C 56.8 °F /  13.8 °C 30in /  1014.2hPa Calm   2mph /  3.2km/h 91% 0.01in /  0.2mm 0 W/m2
21:44 59.4 °F /  15.2 °C 56.7 °F /  13.7 °C 30in /  1014.2hPa Calm   1mph /  1.6km/h 91% 0.01in /  0.2mm 0 W/m2
21:49 59.2 °F /  15.1 °C 56.5 °F /  13.6 °C 30in /  1014.2hPa Calm     91% 0.01in /  0.2mm 0 W/m2
21:54 59 °F /  15 °C 56.7 °F /  13.7 °C 30in /  1014.2hPa WSW 0.9mph /  1.4km/h 1mph /  1.6km/h 92% 0in /  0.0mm 0 W/m2
21:59 58.8 °F /  14.9 °C 56.5 °F /  13.6 °C 30in /  1014.2hPa Calm   1mph /  1.6km/h 92% 0in /  0.0mm 0 W/m2
22:04 58.6 °F /  14.8 °C 56.3 °F /  13.5 °C 30in /  1014.2hPa Calm     92% 0in /  0.0mm 0 W/m2
22:09 58.5 °F /  14.7 °C 56.1 °F /  13.4 °C 30in /  1014.2hPa Calm   1mph /  1.6km/h 92% 0in /  0.0mm 0 W/m2
22:14 58.3 °F /  14.6 °C 55.9 °F /  13.3 °C 30in /  1014.2hPa Calm     92% 0in /  0.0mm 0 W/m2
22:19 58.1 °F /  14.5 °C 55.8 °F /  13.2 °C 30in /  1014.2hPa Calm     92% 0in /  0.0mm 0 W/m2
22:24 57.9 °F /  14.4 °C 55.9 °F /  13.3 °C 30in /  1014.2hPa Calm   1mph /  1.6km/h 93% 0in /  0.0mm 0 W/m2
22:29 57.7 °F /  14.3 °C 55.8 °F /  13.2 °C 30in /  1014.2hPa Calm     93% 0in /  0.0mm 0 W/m2
22:34 57.6 °F /  14.2 °C 55.6 °F /  13.1 °C 30in /  1014.2hPa Calm   1mph /  1.6km/h 93% 0in /  0.0mm 0 W/m2
22:39 57.6 °F /  14.2 °C 55.6 °F /  13.1 °C 30in /  1014.2hPa Calm   1mph /  1.6km/h 93% 0in /  0.0mm 0 W/m2
22:44 57.4 °F /  14.1 °C 55.4 °F /  13 °C 30in /  1014.2hPa Calm   1mph /  1.6km/h 93% 0in /  0.0mm 0 W/m2
22:49 57.4 °F /  14.1 °C 55.6 °F /  13.1 °C 30in /  1014.6hPa Calm     94% 0in /  0.0mm 0 W/m2
22:54 57.2 °F /  14 °C 55.4 °F /  13 °C 30in /  1014.2hPa Calm     94% 0in /  0.0mm 0 W/m2
22:59 57 °F /  13.9 °C 55.2 °F /  12.9 °C 30in /  1014.6hPa Calm     94% 0in /  0.0mm 0 W/m2
23:04 57.2 °F /  14 °C 55.4 °F /  13 °C 30in /  1014.6hPa Calm     94% 0in /  0.0mm 0 W/m2
23:09 57.4 °F /  14.1 °C 55.6 °F /  13.1 °C 30in /  1014.6hPa Calm     94% 0in /  0.0mm 0 W/m2
23:14 57.4 °F /  14.1 °C 55.6 °F /  13.1 °C 30in /  1014.6hPa Calm     94% 0in /  0.0mm 0 W/m2
23:19 57.6 °F /  14.2 °C 56.1 °F /  13.4 °C 30in /  1014.6hPa Calm     95% 0in /  0.0mm 0 W/m2
23:24 57.7 °F /  14.3 °C 56.3 °F /  13.5 °C 30in /  1014.6hPa Calm   2mph /  3.2km/h 95% 0in /  0.0mm 0 W/m2
23:43 58.3 °F /  14.6 °C 56.8 °F /  13.8 °C 30in /  1014.6hPa West 0.9mph /  1.4km/h 3mph /  4.8km/h 95% 0in /  0.0mm 0 W/m2
23:48 58.5 °F /  14.7 °C 56.7 °F /  13.7 °C 30in /  1014.6hPa Calm     94% 0.02in /  0.5mm 0 W/m2
23:53 58.5 °F /  14.7 °C 56.7 °F /  13.7 °C 30in /  1014.6hPa Calm   3mph /  4.8km/h 94% 0.03in /  0.8mm 0 W/m2
23:58 58.5 °F /  14.7 °C 56.7 °F /  13.7 °C 30in /  1014.6hPa Calm     94% 0.04in /  1.0mm 0 W/m2
Juneau County Weather
Compliments of Weather Underground - 2 mb